Accueil
METAR-TAF:

METAR-TAF

Aéroports :

Victoria, Mahé, Seychelles

Aéroport international des Seychelles

latitude: 04-40S, longitude: 055-31E, altitude: 3 m

Observation

Le bulletin a été fait il y a 48 minutes, à 04:00 UTC
Vent 9 kt de nord
Température 28°C
Humidité 79%
Pression 1012 hPa
Visibilité 10 km ou plus
Nuages fragmentés à une hauteur de 1600 ft

METAR: FSIA 220400Z 36009KT 9999 BKN016 28/24 Q1012 NOSIG

Heure: 08:48 (04:48 UTC)

Prévision

Le bulletin a été fait il y a 5 heures et 48 minutes, à 23:00 UTC
Prévision valable du 22 à 00 UTC au 22 à 24 UTC
Vent 5 kt de ouest
Visibilité 10 km ou plus
Quelques nuages à une hauteur de 1400 ft, Cumulonimbus.
Nuages épars à une hauteur de 1700 ft
Evoluant progressivement
du 22 à 04 UTC au 22 à 06 UTC
Nuages épars à une hauteur de 2000 ft

TAF: FSIA 212300Z 2200/2224 27005KT 9999 FEW014CB SCT017 BECMG 2204/2206 SCT020

Observations et prévisions météorologiques de plus de 4000 aéroports (messages METAR et TAF).

Les stations disponibles sont représentées par des disques jaunes et rouges sur la carte.

Passer la souris dessus pour voir le nom de la station.

Cliquer dessus pour voir les observations et prévisions météorologiques.

Pour changer de carte: cliquez sur les boutons verts avec une croix noire pour zoomer, sur le bouton vert avec un tiret pour effectuer un zoom arrière, ou sur les flèches vertes pour les cartes adjacentes.


METAR-TAF: